Time;durP1;ratioP1;P1;durP2;ratioP2;P2;SDS_P1;SDS_P2;PMS_P1;PMS_P2;Temp;Humidity;BMP_temperature;BMP_pressure;BME280_temperature;BME280_humidity;BME280_pressure;Samples;Min_cycle;Max_cycle;Signal;HPM_P1;HPM_P2
2022/12/04 00:01:09;;;;;;;15.10;9.33;;;;;;;;;;5006961;28;20259;-27
2022/12/04 00:03:38;;;;;;;16.47;10.07;;;;;;;;;;5013094;28;20203;-28
2022/12/04 00:06:06;;;;;;;16.60;10.53;;;;;;;;;;5002965;28;20212;-27
2022/12/04 00:08:33;;;;;;;18.07;11.00;;;;;;;;;;5010541;28;20235;-29
2022/12/04 00:11:01;;;;;;;15.43;9.17;;;;;;;;;;5014154;28;20222;-27
2022/12/04 00:13:28;;;;;;;17.60;10.47;;;;;;;;;;5019525;28;20256;-27
2022/12/04 00:15:55;;;;;;;16.43;9.93;;;;;;;;;;5010238;28;20287;-27
2022/12/04 00:18:24;;;;;;;17.07;9.90;;;;;;;;;;5014736;28;20199;-27
2022/12/04 00:20:51;;;;;;;15.67;9.40;;;;;;;;;;5014485;28;20236;-29
2022/12/04 00:23:18;;;;;;;17.73;11.07;;;;;;;;;;4999795;28;20208;-26
2022/12/04 00:25:47;;;;;;;16.93;9.90;;;;;;;;;;5007591;28;20572;-27
2022/12/04 00:28:15;;;;;;;17.17;10.10;;;;;;;;;;5015885;28;20203;-29
2022/12/04 00:30:42;;;;;;;19.03;11.23;;;;;;;;;;5014021;28;20219;-27
2022/12/04 00:33:11;;;;;;;19.53;11.13;;;;;;;;;;5019005;28;20214;-26
2022/12/04 00:35:40;;;;;;;20.00;10.90;;;;;;;;;;5014663;28;20223;-28
2022/12/04 00:38:07;;;;;;;18.63;11.57;;;;;;;;;;5011697;28;20655;-28
2022/12/04 00:40:35;;;;;;;17.63;10.37;;;;;;;;;;5009207;28;20326;-26
2022/12/04 00:43:02;;;;;;;17.70;11.23;;;;;;;;;;5014393;28;20277;-29
2022/12/04 00:45:29;;;;;;;17.67;11.30;;;;;;;;;;5000944;28;20210;-28
2022/12/04 00:47:56;;;;;;;21.00;11.90;;;;;;;;;;5007587;28;20912;-28
2022/12/04 00:50:24;;;;;;;18.50;10.90;;;;;;;;;;5012817;28;20309;-28
2022/12/04 00:52:52;;;;;;;18.03;10.87;;;;;;;;;;5004295;28;20756;-29
2022/12/04 00:55:19;;;;;;;20.90;11.73;;;;;;;;;;5013582;28;20203;-28
2022/12/04 00:57:46;;;;;;;22.83;12.40;;;;;;;;;;5014183;28;20270;-29
2022/12/04 01:00:14;;;;;;;21.57;12.37;;;;;;;;;;5009265;28;20314;-27
2022/12/04 01:02:44;;;;;;;18.83;10.60;;;;;;;;;;5010073;28;20212;-28
2022/12/04 01:05:11;;;;;;;22.00;11.60;;;;;;;;;;5014746;28;20298;-27
2022/12/04 01:07:38;;;;;;;19.27;10.83;;;;;;;;;;5006800;28;20650;-29
2022/12/04 01:10:08;;;;;;;20.60;10.93;;;;;;;;;;5008152;28;20235;-29
2022/12/04 01:12:35;;;;;;;19.20;11.27;;;;;;;;;;5003023;28;20272;-29
2022/12/04 01:15:03;;;;;;;18.90;10.73;;;;;;;;;;5006542;28;20238;-30
2022/12/04 01:17:30;;;;;;;21.37;11.90;;;;;;;;;;5006390;28;20203;-29
2022/12/04 01:19:57;;;;;;;18.67;9.90;;;;;;;;;;5005929;28;20662;-26
2022/12/04 01:22:24;;;;;;;20.80;11.00;;;;;;;;;;5010680;28;20229;-28
2022/12/04 01:24:51;;;;;;;18.30;9.67;;;;;;;;;;5001601;28;20213;-28
2022/12/04 01:27:28;;;;;;;19.70;10.50;;;;;;;;;;5008665;28;20207;-28
2022/12/04 01:29:55;;;;;;;19.87;10.80;;;;;;;;;;5010039;28;20214;-29
2022/12/04 01:32:22;;;;;;;18.27;10.23;;;;;;;;;;5010038;28;20219;-28
2022/12/04 01:34:49;;;;;;;16.63;9.00;;;;;;;;;;5013460;28;20204;-29
2022/12/04 01:37:17;;;;;;;17.37;9.67;;;;;;;;;;5013905;28;20680;-29
2022/12/04 01:39:44;;;;;;;16.03;9.00;;;;;;;;;;5013397;28;20708;-29
2022/12/04 01:42:12;;;;;;;16.57;9.33;;;;;;;;;;5006285;28;20227;-27
2022/12/04 01:44:42;;;;;;;17.23;9.30;;;;;;;;;;5005070;28;20206;-28
2022/12/04 01:47:10;;;;;;;16.23;9.13;;;;;;;;;;5011863;28;20210;-29
2022/12/04 01:49:40;;;;;;;14.60;8.43;;;;;;;;;;5008427;28;20195;-28
2022/12/04 01:52:09;;;;;;;20.50;9.13;;;;;;;;;;5012446;28;20223;-29
2022/12/04 01:54:37;;;;;;;17.10;9.13;;;;;;;;;;5010906;28;20211;-28
2022/12/04 01:57:07;;;;;;;14.77;7.93;;;;;;;;;;5008766;28;20217;-27
2022/12/04 01:59:36;;;;;;;14.03;8.13;;;;;;;;;;5011786;28;20259;-28
2022/12/04 02:02:09;;;;;;;15.40;8.47;;;;;;;;;;5007145;28;20227;-29
2022/12/04 02:04:36;;;;;;;13.50;8.00;;;;;;;;;;5015773;28;20533;-28
2022/12/04 02:07:04;;;;;;;18.97;9.13;;;;;;;;;;5012836;28;20206;-28
2022/12/04 02:09:31;;;;;;;15.70;8.50;;;;;;;;;;5005286;28;20204;-29
2022/12/04 02:12:00;;;;;;;15.00;8.23;;;;;;;;;;5009671;28;20230;-27
2022/12/04 02:14:31;;;;;;;13.80;8.10;;;;;;;;;;5013740;28;20211;-28
2022/12/04 02:17:04;;;;;;;15.30;8.70;;;;;;;;;;5005322;28;20207;-28
2022/12/04 02:19:44;;;;;;;16.90;8.73;;;;;;;;;;5013518;28;20638;-28
2022/12/04 02:22:20;;;;;;;16.37;8.37;;;;;;;;;;4994516;28;20270;-27
2022/12/04 02:24:53;;;;;;;14.50;7.70;;;;;;;;;;4995637;28;20661;-27
2022/12/04 02:27:29;;;;;;;15.13;7.80;;;;;;;;;;5011964;28;20219;-28
2022/12/04 02:29:59;;;;;;;14.53;7.90;;;;;;;;;;5016863;28;20202;-29
2022/12/04 02:32:31;;;;;;;13.83;8.63;;;;;;;;;;5006653;28;20206;-29
2022/12/04 02:42:41;;;;;;;13.67;7.77;;;;;;;;;;5025696;28;20284;-26
2022/12/04 02:45:12;;;;;;;13.50;7.63;;;;;;;;;;4999389;28;20426;-25
2022/12/04 02:47:41;;;;;;;13.77;7.10;;;;;;;;;;5009475;28;20203;-24
2022/12/04 02:50:09;;;;;;;12.47;7.13;;;;;;;;;;5012299;28;20675;-25
2022/12/04 02:52:39;;;;;;;12.97;7.37;;;;;;;;;;5007540;28;20216;-24
2022/12/04 02:55:08;;;;;;;13.97;7.23;;;;;;;;;;4994933;28;20633;-24
2022/12/04 02:57:37;;;;;;;13.80;7.30;;;;;;;;;;5005035;28;20195;-24
2022/12/04 03:00:07;;;;;;;14.33;7.83;;;;;;;;;;4976387;28;20354;-24
2022/12/04 03:02:39;;;;;;;14.60;7.53;;;;;;;;;;5002141;28;20211;-25
2022/12/04 03:05:10;;;;;;;13.33;7.27;;;;;;;;;;5001267;28;20207;-24
2022/12/04 03:07:38;;;;;;;13.47;7.60;;;;;;;;;;4990352;28;20202;-27
2022/12/04 03:10:07;;;;;;;13.10;7.73;;;;;;;;;;4988874;28;20220;-22
2022/12/04 03:12:37;;;;;;;18.00;8.00;;;;;;;;;;5001451;28;20208;-25
2022/12/04 03:15:06;;;;;;;15.17;7.73;;;;;;;;;;4979586;28;20208;-25
2022/12/04 03:17:35;;;;;;;15.43;7.87;;;;;;;;;;4985003;28;20212;-23
2022/12/04 03:20:06;;;;;;;14.53;8.27;;;;;;;;;;4992676;28;20208;-25
2022/12/04 03:22:35;;;;;;;12.87;6.97;;;;;;;;;;4990210;28;20230;-27
2022/12/04 03:25:03;;;;;;;13.77;7.60;;;;;;;;;;4995696;28;20220;-24
2022/12/04 03:27:34;;;;;;;11.03;5.90;;;;;;;;;;5007017;28;20207;-27
2022/12/04 03:30:04;;;;;;;15.43;8.20;;;;;;;;;;4999437;28;20205;-25
2022/12/04 03:32:34;;;;;;;12.93;8.07;;;;;;;;;;4996810;28;20202;-26
2022/12/04 03:35:04;;;;;;;15.20;7.70;;;;;;;;;;5011098;28;20290;-24
2022/12/04 03:37:36;;;;;;;14.67;8.17;;;;;;;;;;5011172;28;20207;-24
2022/12/04 03:40:06;;;;;;;13.63;7.13;;;;;;;;;;4991962;28;20246;-25
2022/12/04 03:42:36;;;;;;;13.43;6.80;;;;;;;;;;5001633;28;20227;-25
2022/12/04 03:45:07;;;;;;;12.30;7.00;;;;;;;;;;5004184;28;20299;-28
2022/12/04 03:47:36;;;;;;;15.87;8.20;;;;;;;;;;5001149;28;20218;-24
2022/12/04 03:50:08;;;;;;;13.37;7.70;;;;;;;;;;4998276;28;20211;-25
2022/12/04 03:52:37;;;;;;;14.30;6.87;;;;;;;;;;4983695;28;20193;-25
2022/12/04 03:55:07;;;;;;;12.37;6.70;;;;;;;;;;4990911;28;20234;-25
2022/12/04 03:57:37;;;;;;;11.30;7.40;;;;;;;;;;5003554;28;20199;-23
2022/12/04 04:00:06;;;;;;;11.57;6.93;;;;;;;;;;5007913;28;20211;-26
2022/12/04 04:02:35;;;;;;;13.07;7.20;;;;;;;;;;5004350;28;20225;-23
2022/12/04 04:05:03;;;;;;;14.87;7.70;;;;;;;;;;5015301;28;20218;-25
2022/12/04 04:07:34;;;;;;;14.27;7.57;;;;;;;;;;5013147;28;20231;-24
2022/12/04 04:10:04;;;;;;;13.10;7.57;;;;;;;;;;4991170;28;20200;-24
2022/12/04 04:12:33;;;;;;;13.27;6.20;;;;;;;;;;4999099;28;20692;-25
2022/12/04 04:26:16;;;;;;;13.93;7.53;;;;;;;;;;5000719;28;20227;-24
2022/12/04 04:28:43;;;;;;;11.13;6.80;;;;;;;;;;5004376;28;20199;-25
2022/12/04 04:31:13;;;;;;;11.30;6.57;;;;;;;;;;4998120;28;20228;-24
2022/12/04 04:33:45;;;;;;;13.33;6.20;;;;;;;;;;5006889;28;20206;-28
2022/12/04 04:36:17;;;;;;;13.50;7.00;;;;;;;;;;5004731;28;20204;-25
2022/12/04 04:38:48;;;;;;;12.97;7.33;;;;;;;;;;4985163;28;20201;-25
2022/12/04 04:41:19;;;;;;;12.07;6.93;;;;;;;;;;5004120;28;20238;-25
2022/12/04 04:43:50;;;;;;;10.37;6.37;;;;;;;;;;5010630;28;20246;-26
2022/12/04 04:46:23;;;;;;;13.97;7.03;;;;;;;;;;4996165;28;20205;-23
2022/12/04 04:48:53;;;;;;;12.00;7.33;;;;;;;;;;5012800;28;20286;-24
2022/12/04 04:51:20;;;;;;;12.73;6.53;;;;;;;;;;4983323;28;20889;-25
2022/12/04 04:53:51;;;;;;;14.80;7.80;;;;;;;;;;4986253;28;20200;-23
2022/12/04 04:56:18;;;;;;;11.20;7.17;;;;;;;;;;4984862;28;20305;-24
2022/12/04 04:58:45;;;;;;;12.40;6.90;;;;;;;;;;5014714;28;20207;-24
2022/12/04 05:01:14;;;;;;;12.67;6.73;;;;;;;;;;5000682;28;20239;-25
2022/12/04 05:03:42;;;;;;;12.60;6.83;;;;;;;;;;5006780;28;20209;-25
2022/12/04 05:06:09;;;;;;;12.57;6.80;;;;;;;;;;5013410;28;20208;-25
2022/12/04 05:08:36;;;;;;;12.77;7.27;;;;;;;;;;5008864;28;20211;-25
2022/12/04 05:11:06;;;;;;;12.03;6.80;;;;;;;;;;4982826;28;20224;-25
2022/12/04 05:13:33;;;;;;;12.00;7.00;;;;;;;;;;5014550;28;20286;-26
2022/12/04 05:16:01;;;;;;;12.47;6.80;;;;;;;;;;4999592;28;20210;-24
2022/12/04 05:18:28;;;;;;;12.60;6.20;;;;;;;;;;5011712;28;20204;-25
2022/12/04 05:20:54;;;;;;;10.80;6.00;;;;;;;;;;5010264;28;20227;-26
2022/12/04 05:23:22;;;;;;;14.23;7.33;;;;;;;;;;4994355;28;20223;-26
2022/12/04 05:25:49;;;;;;;12.90;6.90;;;;;;;;;;4990872;28;20209;-25
2022/12/04 05:28:17;;;;;;;12.10;6.97;;;;;;;;;;5009375;28;20204;-26
2022/12/04 05:30:44;;;;;;;11.10;6.93;;;;;;;;;;4996279;28;20235;-24
2022/12/04 05:33:12;;;;;;;11.13;6.73;;;;;;;;;;5009276;28;20294;-24
2022/12/04 05:35:39;;;;;;;10.80;6.50;;;;;;;;;;5014069;28;20210;-25
2022/12/04 05:38:06;;;;;;;10.70;6.30;;;;;;;;;;5003216;28;20223;-24
2022/12/04 05:40:33;;;;;;;10.13;5.87;;;;;;;;;;4995328;28;20242;-27
2022/12/04 05:43:00;;;;;;;13.83;6.80;;;;;;;;;;5002133;28;20237;-27
2022/12/04 05:45:29;;;;;;;12.60;6.97;;;;;;;;;;5001077;28;20204;-25
2022/12/04 05:47:56;;;;;;;12.63;6.67;;;;;;;;;;4997246;28;20214;-26
2022/12/04 05:50:23;;;;;;;10.73;6.30;;;;;;;;;;5013440;28;20231;-24
2022/12/04 05:52:50;;;;;;;9.53;5.30;;;;;;;;;;4987481;28;20199;-26
2022/12/04 05:55:17;;;;;;;11.47;6.83;;;;;;;;;;4989559;28;20204;-23
2022/12/04 05:57:44;;;;;;;10.70;6.20;;;;;;;;;;5004561;28;20294;-23
2022/12/04 06:00:20;;;;;;;11.67;6.67;;;;;;;;;;5004729;28;20212;-24
2022/12/04 06:02:49;;;;;;;12.83;6.87;;;;;;;;;;5002568;28;20246;-25
2022/12/04 06:05:16;;;;;;;11.90;6.73;;;;;;;;;;5013315;28;20208;-25
2022/12/04 06:07:43;;;;;;;12.40;7.10;;;;;;;;;;4987496;28;20236;-24
2022/12/04 06:10:10;;;;;;;12.37;6.67;;;;;;;;;;4981516;28;20291;-26
2022/12/04 06:12:37;;;;;;;12.47;6.97;;;;;;;;;;4997110;28;20196;-25
2022/12/04 06:15:05;;;;;;;9.60;5.73;;;;;;;;;;4997382;28;20212;-24
2022/12/04 06:17:32;;;;;;;10.47;6.10;;;;;;;;;;4997181;28;20210;-24
2022/12/04 06:20:01;;;;;;;12.83;8.10;;;;;;;;;;5008386;28;20679;-26
2022/12/04 06:22:28;;;;;;;10.97;6.43;;;;;;;;;;4996860;28;20220;-24
2022/12/04 06:24:55;;;;;;;11.40;7.20;;;;;;;;;;4994466;28;20227;-23
2022/12/04 06:27:22;;;;;;;12.67;7.13;;;;;;;;;;5012853;28;20209;-23
2022/12/04 06:29:49;;;;;;;15.50;7.97;;;;;;;;;;5006644;28;20208;-24
2022/12/04 06:32:16;;;;;;;14.07;7.83;;;;;;;;;;4999711;28;20223;-22
2022/12/04 06:34:43;;;;;;;10.67;6.27;;;;;;;;;;5011901;28;20210;-23
2022/12/04 06:37:12;;;;;;;11.47;6.30;;;;;;;;;;5013295;28;20302;-25
2022/12/04 06:39:45;;;;;;;13.40;7.13;;;;;;;;;;4995323;28;20219;-24
2022/12/04 06:42:13;;;;;;;11.13;7.27;;;;;;;;;;4984369;28;20241;-24
2022/12/04 06:44:40;;;;;;;12.53;6.53;;;;;;;;;;5010241;28;20203;-24
2022/12/04 06:47:07;;;;;;;12.20;6.67;;;;;;;;;;4996370;28;20276;-24
2022/12/04 06:49:35;;;;;;;11.60;6.60;;;;;;;;;;5004044;28;20217;-25
2022/12/04 06:52:02;;;;;;;10.27;6.07;;;;;;;;;;4997591;28;20228;-24
2022/12/04 06:54:30;;;;;;;13.93;7.03;;;;;;;;;;4991675;28;20699;-25
2022/12/04 06:56:57;;;;;;;10.63;5.90;;;;;;;;;;5007705;28;20199;-23
2022/12/04 06:59:24;;;;;;;10.17;6.10;;;;;;;;;;4998900;28;20208;-24
2022/12/04 07:01:52;;;;;;;10.07;6.00;;;;;;;;;;4985198;28;20325;-23
2022/12/04 07:04:26;;;;;;;10.47;6.57;;;;;;;;;;4995375;28;20680;-26
2022/12/04 07:06:57;;;;;;;12.27;6.57;;;;;;;;;;5004602;28;20197;-24
2022/12/04 07:09:31;;;;;;;9.97;5.63;;;;;;;;;;4990343;28;20294;-25
2022/12/04 07:11:58;;;;;;;13.77;6.20;;;;;;;;;;4989503;28;20318;-24
2022/12/04 07:14:25;;;;;;;11.27;6.43;;;;;;;;;;4995753;28;20211;-24
2022/12/04 07:16:52;;;;;;;14.10;8.27;;;;;;;;;;4982310;28;20704;-26
2022/12/04 07:19:19;;;;;;;8.77;6.10;;;;;;;;;;4987384;28;20204;-24
2022/12/04 07:21:46;;;;;;;13.97;6.93;;;;;;;;;;4992486;28;20234;-26
2022/12/04 07:24:15;;;;;;;8.83;5.33;;;;;;;;;;4989575;28;20241;-23
2022/12/04 07:26:44;;;;;;;11.23;6.40;;;;;;;;;;4976286;28;20212;-25
2022/12/04 07:29:11;;;;;;;11.33;6.30;;;;;;;;;;4991863;28;20204;-26
2022/12/04 07:31:38;;;;;;;11.70;6.27;;;;;;;;;;4993712;28;20310;-23
2022/12/04 07:34:06;;;;;;;11.20;6.47;;;;;;;;;;5005259;28;20213;-24
2022/12/04 07:36:33;;;;;;;9.40;6.10;;;;;;;;;;5009729;28;20197;-25
2022/12/04 07:39:00;;;;;;;10.20;5.97;;;;;;;;;;4980984;28;20303;-26
2022/12/04 07:41:27;;;;;;;9.80;5.83;;;;;;;;;;5008113;28;20231;-23
2022/12/04 07:43:56;;;;;;;8.87;6.37;;;;;;;;;;5000467;28;20235;-24
2022/12/04 07:46:26;;;;;;;11.47;6.37;;;;;;;;;;4991800;28;20203;-27
2022/12/04 07:48:55;;;;;;;13.23;6.93;;;;;;;;;;5003043;28;20200;-26
2022/12/04 07:51:23;;;;;;;14.37;6.70;;;;;;;;;;5008458;28;20231;-23
2022/12/04 07:53:50;;;;;;;13.17;7.13;;;;;;;;;;4996765;28;20208;-26
2022/12/04 07:56:18;;;;;;;11.03;6.50;;;;;;;;;;4989799;28;20210;-26
2022/12/04 07:58:45;;;;;;;10.47;6.73;;;;;;;;;;5008729;28;20217;-25
2022/12/04 08:01:15;;;;;;;12.10;6.57;;;;;;;;;;4996092;28;20223;-24
2022/12/04 08:03:42;;;;;;;11.37;6.83;;;;;;;;;;5010390;28;20223;-23
2022/12/04 08:06:09;;;;;;;11.80;6.30;;;;;;;;;;5015870;28;20199;-24
2022/12/04 08:08:37;;;;;;;11.70;6.90;;;;;;;;;;5015670;28;20298;-25
2022/12/04 08:11:06;;;;;;;11.77;6.63;;;;;;;;;;4999938;28;20232;-25
2022/12/04 08:13:33;;;;;;;11.40;6.60;;;;;;;;;;5010653;28;20202;-24
2022/12/04 08:16:01;;;;;;;12.50;7.53;;;;;;;;;;4999816;28;20214;-26
2022/12/04 08:18:30;;;;;;;13.10;7.17;;;;;;;;;;5011075;28;20205;-23
2022/12/04 08:21:03;;;;;;;10.10;6.47;;;;;;;;;;4999911;28;20224;-25
2022/12/04 08:23:30;;;;;;;12.10;6.53;;;;;;;;;;4985840;28;20244;-28
2022/12/04 08:25:58;;;;;;;11.67;7.30;;;;;;;;;;4992446;28;20209;-23
2022/12/04 08:28:25;;;;;;;13.80;7.57;;;;;;;;;;4989535;28;20208;-26
2022/12/04 08:30:52;;;;;;;9.17;6.97;;;;;;;;;;4982320;28;20231;-25
2022/12/04 08:33:20;;;;;;;14.60;6.90;;;;;;;;;;5008808;28;20199;-26
2022/12/04 08:35:48;;;;;;;12.70;7.70;;;;;;;;;;5014718;28;20199;-26
2022/12/04 08:51:08;;;;;;;15.50;8.03;;;;;;;;;;5048913;28;20225;-28
2022/12/04 08:53:36;;;;;;;11.43;7.33;;;;;;;;;;5037367;28;20199;-28
2022/12/04 08:56:04;;;;;;;12.80;7.00;;;;;;;;;;5022153;28;20207;-30
2022/12/04 08:58:31;;;;;;;15.97;8.50;;;;;;;;;;5024884;28;20476;-30
2022/12/04 09:01:03;;;;;;;12.83;7.77;;;;;;;;;;5024414;28;20301;-31
2022/12/04 09:03:34;;;;;;;14.70;8.97;;;;;;;;;;5035023;28;20206;-28
2022/12/04 09:06:13;;;;;;;10.60;6.30;;;;;;;;;;5033324;28;20370;-28
2022/12/04 09:08:40;;;;;;;10.97;7.00;;;;;;;;;;5049117;28;20253;-27
2022/12/04 09:11:18;;;;;;;13.67;7.77;;;;;;;;;;5026843;28;20238;-28
2022/12/04 09:13:45;;;;;;;13.83;7.20;;;;;;;;;;5038590;28;20194;-28
2022/12/04 09:16:13;;;;;;;15.53;8.23;;;;;;;;;;5026066;28;20219;-28
2022/12/04 09:18:41;;;;;;;12.33;7.20;;;;;;;;;;5030106;28;20213;-29
2022/12/04 09:21:09;;;;;;;16.23;9.27;;;;;;;;;;5052744;28;20224;-27
2022/12/04 09:23:40;;;;;;;10.70;6.87;;;;;;;;;;5041011;28;20257;-30
2022/12/04 09:26:17;;;;;;;14.27;8.37;;;;;;;;;;5034810;28;20202;-28
2022/12/04 09:28:44;;;;;;;11.50;7.60;;;;;;;;;;5034806;28;20202;-27
2022/12/04 09:31:12;;;;;;;15.13;8.63;;;;;;;;;;5028754;28;20299;-30
2022/12/04 09:33:39;;;;;;;22.47;10.70;;;;;;;;;;5039933;28;20195;-26
2022/12/04 09:36:06;;;;;;;16.33;8.77;;;;;;;;;;5034055;28;20294;-27
2022/12/04 09:38:33;;;;;;;14.13;8.23;;;;;;;;;;5033811;28;20203;-25
2022/12/04 09:41:07;;;;;;;11.70;7.77;;;;;;;;;;5022334;28;20232;-29
2022/12/04 09:43:36;;;;;;;12.83;7.40;;;;;;;;;;5039029;28;20211;-26
2022/12/04 09:46:04;;;;;;;14.10;7.33;;;;;;;;;;5025374;28;20214;-27
2022/12/04 09:48:33;;;;;;;13.87;8.03;;;;;;;;;;5029036;28;20289;-27
2022/12/04 09:51:01;;;;;;;11.93;7.77;;;;;;;;;;5033776;28;20235;-30
2022/12/04 09:53:30;;;;;;;13.70;8.10;;;;;;;;;;5032773;28;20264;-28
2022/12/04 09:56:00;;;;;;;14.10;8.50;;;;;;;;;;5026494;28;20199;-31
2022/12/04 09:58:35;;;;;;;15.17;8.27;;;;;;;;;;5033635;28;20293;-29
2022/12/04 10:01:03;;;;;;;14.40;7.53;;;;;;;;;;5024404;28;20234;-31
2022/12/04 10:03:31;;;;;;;13.60;8.63;;;;;;;;;;5034096;28;20256;-27
2022/12/04 10:06:04;;;;;;;13.90;8.60;;;;;;;;;;5033560;28;20202;-28
2022/12/04 10:08:34;;;;;;;12.97;8.70;;;;;;;;;;5029711;28;20203;-25
2022/12/04 10:11:07;;;;;;;14.83;8.83;;;;;;;;;;5034023;28;20226;-26
2022/12/04 10:13:45;;;;;;;15.00;8.40;;;;;;;;;;5045211;28;20209;-27
2022/12/04 10:16:14;;;;;;;16.17;7.80;;;;;;;;;;5028938;28;20203;-26
2022/12/04 10:18:46;;;;;;;14.70;7.97;;;;;;;;;;5031109;28;20203;-26
2022/12/04 10:21:19;;;;;;;15.90;7.73;;;;;;;;;;5033029;28;20261;-28
2022/12/04 10:23:52;;;;;;;13.03;8.07;;;;;;;;;;5028642;28;20217;-26
2022/12/04 10:26:23;;;;;;;13.20;8.00;;;;;;;;;;5031834;28;20233;-27
2022/12/04 10:28:54;;;;;;;11.93;8.00;;;;;;;;;;5040454;28;20256;-28
2022/12/04 10:31:21;;;;;;;13.03;7.63;;;;;;;;;;5030167;28;20226;-28
2022/12/04 10:33:51;;;;;;;16.40;8.23;;;;;;;;;;5027881;28;20208;-28
2022/12/04 10:36:19;;;;;;;14.47;7.67;;;;;;;;;;5030235;28;20203;-30
2022/12/04 10:38:48;;;;;;;12.93;7.83;;;;;;;;;;5026084;28;20203;-28
2022/12/04 10:41:18;;;;;;;13.17;7.27;;;;;;;;;;5027869;28;20243;-28
2022/12/04 10:43:46;;;;;;;11.70;7.70;;;;;;;;;;5045395;28;20534;-26
2022/12/04 10:46:16;;;;;;;14.00;8.27;;;;;;;;;;5026707;28;20212;-28
2022/12/04 10:48:44;;;;;;;13.83;7.83;;;;;;;;;;5043421;28;20207;-31
2022/12/04 10:51:14;;;;;;;14.33;8.73;;;;;;;;;;5041226;28;20222;-28
2022/12/04 10:53:42;;;;;;;11.67;6.93;;;;;;;;;;5026064;28;20191;-30
2022/12/04 10:56:10;;;;;;;12.90;7.33;;;;;;;;;;5028173;28;20203;-28
2022/12/04 10:59:03;;;;;;;12.87;7.20;;;;;;;;;;5032137;28;20202;-28
2022/12/04 11:01:33;;;;;;;13.77;7.37;;;;;;;;;;5000025;28;20224;-27
2022/12/04 11:04:02;;;;;;;13.57;7.80;;;;;;;;;;5032145;28;20214;-28
2022/12/04 11:06:29;;;;;;;14.00;7.60;;;;;;;;;;5035851;28;20297;-31
2022/12/04 11:08:57;;;;;;;15.10;7.60;;;;;;;;;;5036429;28;20209;-27
2022/12/04 11:11:25;;;;;;;13.47;7.37;;;;;;;;;;5041343;28;20221;-28
2022/12/04 11:14:01;;;;;;;10.43;6.47;;;;;;;;;;5049559;28;20225;-28
2022/12/04 11:16:32;;;;;;;15.13;8.47;;;;;;;;;;5037234;28;20245;-29
2022/12/04 11:19:01;;;;;;;13.07;7.70;;;;;;;;;;5034216;28;20202;-27
2022/12/04 11:21:29;;;;;;;12.97;7.40;;;;;;;;;;5040572;28;20222;-31
2022/12/04 11:23:57;;;;;;;14.70;8.20;;;;;;;;;;5034077;28;20223;-29
2022/12/04 11:26:30;;;;;;;16.70;9.50;;;;;;;;;;5043546;28;20205;-26
2022/12/04 11:29:00;;;;;;;12.33;7.53;;;;;;;;;;5047202;28;20187;-24
2022/12/04 11:31:27;;;;;;;13.10;7.37;;;;;;;;;;5031426;28;20222;-28
2022/12/04 11:34:08;;;;;;;13.60;8.17;;;;;;;;;;5030944;28;20213;-26
2022/12/04 11:36:39;;;;;;;15.80;7.90;;;;;;;;;;5034854;28;20288;-28
2022/12/04 11:39:09;;;;;;;15.17;7.03;;;;;;;;;;5046520;28;20195;-32
2022/12/04 11:44:06;;;;;;;15.27;8.90;;;;;;;;;;5011205;28;20281;-27
2022/12/04 11:46:33;;;;;;;15.33;7.83;;;;;;;;;;5017059;28;20213;-28
2022/12/04 11:49:02;;;;;;;14.17;7.97;;;;;;;;;;5016731;28;20203;-27
2022/12/04 11:51:35;;;;;;;13.53;7.33;;;;;;;;;;5015436;28;20227;-27
2022/12/04 11:54:12;;;;;;;15.53;8.07;;;;;;;;;;5011746;28;20196;-25
2022/12/04 11:56:42;;;;;;;14.17;8.20;;;;;;;;;;5018961;28;20217;-28
2022/12/04 11:59:21;;;;;;;13.03;7.67;;;;;;;;;;5015688;28;20242;-28
2022/12/04 12:01:52;;;;;;;13.90;8.83;;;;;;;;;;5007151;28;20230;-27
2022/12/04 12:04:29;;;;;;;13.47;7.60;;;;;;;;;;5019001;28;20219;-27
2022/12/04 12:07:04;;;;;;;13.60;8.27;;;;;;;;;;5015776;28;20203;-29
2022/12/04 12:09:36;;;;;;;12.73;7.50;;;;;;;;;;4996580;28;20187;-29
2022/12/04 12:12:07;;;;;;;14.63;7.97;;;;;;;;;;5016622;28;20294;-27
2022/12/04 12:14:40;;;;;;;14.03;8.27;;;;;;;;;;5016168;28;20210;-29
2022/12/04 12:17:12;;;;;;;14.77;8.50;;;;;;;;;;5006731;28;20207;-30
2022/12/04 12:19:43;;;;;;;13.53;8.37;;;;;;;;;;5019929;28;20210;-27
2022/12/04 12:22:17;;;;;;;14.03;8.43;;;;;;;;;;5015446;28;20261;-31
2022/12/04 12:24:49;;;;;;;15.27;8.53;;;;;;;;;;5010711;28;20238;-28
2022/12/04 12:27:26;;;;;;;18.20;9.47;;;;;;;;;;5019641;28;20199;-29
2022/12/04 12:30:01;;;;;;;14.43;7.90;;;;;;;;;;5010817;28;20204;-30
2022/12/04 12:32:36;;;;;;;19.00;9.67;;;;;;;;;;5008023;28;20233;-27
2022/12/04 12:35:05;;;;;;;14.13;8.07;;;;;;;;;;5019679;28;20203;-33
2022/12/04 12:37:40;;;;;;;15.33;8.43;;;;;;;;;;5014945;28;20294;-28
2022/12/04 12:40:12;;;;;;;14.30;8.07;;;;;;;;;;5016435;28;20233;-27
2022/12/04 12:42:41;;;;;;;13.70;7.97;;;;;;;;;;5019474;28;20471;-30
2022/12/04 12:45:17;;;;;;;15.20;8.73;;;;;;;;;;5011807;28;20319;-27
2022/12/04 12:47:47;;;;;;;13.23;7.87;;;;;;;;;;5013073;28;20207;-32
2022/12/04 12:50:16;;;;;;;14.47;7.87;;;;;;;;;;5015440;28;20203;-31
2022/12/04 12:52:48;;;;;;;17.10;8.70;;;;;;;;;;5011332;28;20203;-30
2022/12/04 12:55:16;;;;;;;12.83;8.07;;;;;;;;;;5005358;28;20227;-31
2022/12/04 12:57:45;;;;;;;12.10;7.47;;;;;;;;;;5013890;28;20289;-28
2022/12/04 13:00:15;;;;;;;12.97;8.03;;;;;;;;;;5014832;28;20245;-28
2022/12/04 13:02:45;;;;;;;11.87;7.07;;;;;;;;;;5007596;28;20286;-27
2022/12/04 13:05:14;;;;;;;11.93;7.80;;;;;;;;;;5025389;28;20215;-28
2022/12/04 13:07:45;;;;;;;14.60;9.10;;;;;;;;;;5023637;28;20621;-31
2022/12/04 13:10:33;;;;;;;13.00;8.00;;;;;;;;;;5017196;28;20205;-26
2022/12/04 13:13:02;;;;;;;13.00;8.07;;;;;;;;;;5017259;28;20238;-28
2022/12/04 13:15:34;;;;;;;14.07;8.57;;;;;;;;;;5011433;28;20283;-31
2022/12/04 13:18:01;;;;;;;12.13;7.53;;;;;;;;;;5011365;28;20300;-29
2022/12/04 13:20:31;;;;;;;10.33;6.77;;;;;;;;;;5014266;28;20223;-28
2022/12/04 13:23:10;;;;;;;14.43;8.33;;;;;;;;;;5010141;28;20284;-27
2022/12/04 13:25:46;;;;;;;15.07;8.83;;;;;;;;;;5007809;28;20203;-28
2022/12/04 13:28:19;;;;;;;28.70;16.97;;;;;;;;;;5024504;28;20202;-29
2022/12/04 13:30:49;;;;;;;15.53;10.20;;;;;;;;;;5019291;28;20311;-26
2022/12/04 13:33:29;;;;;;;14.63;8.73;;;;;;;;;;5021260;28;20293;-25
2022/12/04 13:36:08;;;;;;;17.20;10.37;;;;;;;;;;5012081;28;20202;-27
2022/12/04 13:38:39;;;;;;;14.27;8.77;;;;;;;;;;5005317;28;20253;-31
2022/12/04 13:41:09;;;;;;;14.47;8.93;;;;;;;;;;5008938;28;20231;-28
2022/12/04 13:43:37;;;;;;;12.83;8.13;;;;;;;;;;5027709;28;20207;-29
2022/12/04 13:46:06;;;;;;;13.70;8.37;;;;;;;;;;5013055;28;20198;-27
2022/12/04 13:48:36;;;;;;;21.73;8.80;;;;;;;;;;5011845;28;20199;-29
2022/12/04 13:51:05;;;;;;;17.07;9.43;;;;;;;;;;5033958;28;20319;-28
2022/12/04 13:53:36;;;;;;;19.23;10.30;;;;;;;;;;5033926;28;20216;-27
2022/12/04 13:56:03;;;;;;;14.27;9.23;;;;;;;;;;5003399;28;20343;-27
2022/12/04 13:58:33;;;;;;;14.20;8.03;;;;;;;;;;5018810;28;20290;-29
2022/12/04 14:01:02;;;;;;;16.43;10.00;;;;;;;;;;5015641;28;20273;-30
2022/12/04 14:03:31;;;;;;;20.13;9.47;;;;;;;;;;5024618;28;20290;-29
2022/12/04 14:06:04;;;;;;;19.90;9.93;;;;;;;;;;5018102;28;20199;-30
2022/12/04 14:08:35;;;;;;;15.47;9.03;;;;;;;;;;5007797;28;20207;-28
2022/12/04 14:11:04;;;;;;;19.20;11.23;;;;;;;;;;5008636;28;20223;-30
2022/12/04 14:13:43;;;;;;;22.63;12.17;;;;;;;;;;5012189;28;20207;-31
2022/12/04 14:16:18;;;;;;;14.77;7.93;;;;;;;;;;5005538;28;20207;-29
2022/12/04 14:18:51;;;;;;;15.17;7.43;;;;;;;;;;5004812;28;20219;-31
2022/12/04 14:21:18;;;;;;;14.33;8.50;;;;;;;;;;5029062;28;20219;-31
2022/12/04 14:23:58;;;;;;;15.20;8.20;;;;;;;;;;5009845;28;20235;-29
2022/12/04 14:26:28;;;;;;;15.80;8.90;;;;;;;;;;5004492;28;20203;-29
2022/12/04 14:29:08;;;;;;;18.43;9.73;;;;;;;;;;5016985;28;20202;-28
2022/12/04 14:31:37;;;;;;;16.33;9.57;;;;;;;;;;5007574;28;20227;-32
2022/12/04 14:34:09;;;;;;;16.93;9.23;;;;;;;;;;5013081;28;20207;-28
2022/12/04 14:36:41;;;;;;;17.00;8.97;;;;;;;;;;5013411;28;20210;-27
2022/12/04 14:39:11;;;;;;;17.40;10.03;;;;;;;;;;5012799;28;20203;-26
2022/12/04 14:41:39;;;;;;;16.43;9.13;;;;;;;;;;5013078;28;20229;-30
2022/12/04 14:44:07;;;;;;;18.50;10.07;;;;;;;;;;5015174;28;20219;-30
2022/12/04 14:46:39;;;;;;;20.10;10.27;;;;;;;;;;5011339;28;20207;-26
2022/12/04 14:49:13;;;;;;;18.63;9.50;;;;;;;;;;5012440;28;20202;-29
2022/12/04 14:51:44;;;;;;;19.80;10.90;;;;;;;;;;5032889;28;20333;-29
2022/12/04 14:54:15;;;;;;;20.33;11.33;;;;;;;;;;5013686;28;20203;-28
2022/12/04 14:56:50;;;;;;;21.23;10.57;;;;;;;;;;5019654;28;20199;-32
2022/12/04 14:59:19;;;;;;;14.93;8.73;;;;;;;;;;5006417;28;20261;-29
2022/12/04 15:01:47;;;;;;;23.37;9.90;;;;;;;;;;5014887;28;20231;-29
2022/12/04 15:04:17;;;;;;;20.60;9.53;;;;;;;;;;5021108;28;20223;-30
2022/12/04 15:06:48;;;;;;;18.70;9.70;;;;;;;;;;5019194;28;20194;-30
2022/12/04 15:15:03;;;;;;;20.73;10.10;;;;;;;;;;5001033;28;20235;-28
2022/12/04 15:17:39;;;;;;;20.60;10.13;;;;;;;;;;5012473;28;20245;-27
2022/12/04 15:20:15;;;;;;;19.93;10.20;;;;;;;;;;5008308;28;20200;-28
2022/12/04 15:22:43;;;;;;;17.67;10.00;;;;;;;;;;5007260;28;20221;-26